createdAt,value
2018-05-23T00:02:35.731Z,56.02
2018-05-23T00:17:37.304Z,56.43
2018-05-23T00:32:36.931Z,56.83
2018-05-23T00:47:36.743Z,56.87
2018-05-23T01:02:35.369Z,57.07
2018-05-23T01:17:34.212Z,57.23
2018-05-23T01:32:34.196Z,57.60
2018-05-23T01:47:34.017Z,57.73
2018-05-23T02:02:37.683Z,57.89
2018-05-23T02:17:36.524Z,58.14
2018-05-23T02:32:34.488Z,58.44
2018-05-23T02:47:34.487Z,58.69
2018-05-23T03:02:36.893Z,59.11
2018-05-23T03:17:34.809Z,59.31
2018-05-23T03:32:35.979Z,58.99
2018-05-23T03:47:35.988Z,58.03
2018-05-23T04:02:46.991Z,57.03
2018-05-23T04:17:37.907Z,55.63
2018-05-23T04:32:37.287Z,53.89
2018-05-23T04:47:37.277Z,52.23
2018-05-23T05:02:34.562Z,50.41
2018-05-23T05:17:34.524Z,48.86
2018-05-23T05:32:35.608Z,47.18
2018-05-23T05:47:37.556Z,45.96
2018-05-23T06:02:37.719Z,44.17
2018-05-23T06:17:35.379Z,43.27
2018-05-23T06:47:37.044Z,41.91
2018-05-23T07:02:35.181Z,41.03
2018-05-23T07:17:35.034Z,40.20
2018-05-23T07:32:35.141Z,39.84
2018-05-23T07:47:37.980Z,39.62
2018-05-23T08:02:36.211Z,39.43
2018-05-23T08:17:35.351Z,38.47
2018-05-23T08:32:37.329Z,40.38
2018-05-23T08:47:37.320Z,40.99
2018-05-23T09:02:34.852Z,39.39
2018-05-23T09:17:34.672Z,39.24
2018-05-23T09:32:34.676Z,39.75
2018-05-23T09:47:34.642Z,40.28
2018-05-23T10:02:37.004Z,39.41
2018-05-23T10:17:35.020Z,37.73
2018-05-23T10:32:36.982Z,37.34
2018-05-23T10:47:34.913Z,38.87
2018-05-23T11:02:38.315Z,39.27
2018-05-23T11:17:35.519Z,39.49
2018-05-23T11:32:35.237Z,39.95
2018-05-23T11:47:35.894Z,40.19
2018-05-23T12:02:34.644Z,40.95
2018-05-23T12:17:37.634Z,43.28
2018-05-23T12:32:34.616Z,44.62
2018-05-23T12:47:34.512Z,46.40
2018-05-23T13:02:34.925Z,47.79
2018-05-23T13:17:33.677Z,48.11
